Time;durP1;ratioP1;P1;durP2;ratioP2;P2;SDS_P1;SDS_P2;PMS_P1;PMS_P2;Temp;Humidity;BMP_temperature;BMP_pressure;BME280_temperature;BME280_humidity;BME280_pressure;Samples;Min_cycle;Max_cycle;Signal;HPM_P1;HPM_P2
2021/01/25 00:00:10;;;;;;;3.43;2.53;;;2.00;99.90;;;;;;5024640;28;20195;-47
2021/01/25 00:02:35;;;;;;;3.97;2.97;;;2.00;99.90;;;;;;5001470;28;20417;-50
2021/01/25 00:05:01;;;;;;;3.00;2.70;;;2.00;99.90;;;;;;5020117;28;20218;-49
2021/01/25 00:07:26;;;;;;;4.03;2.90;;;2.10;99.90;;;;;;5018201;28;20353;-44
2021/01/25 00:09:52;;;;;;;4.97;3.27;;;2.10;99.90;;;;;;5028124;28;20218;-52
2021/01/25 00:12:17;;;;;;;4.87;3.47;;;2.10;99.90;;;;;;5024280;28;20644;-44
2021/01/25 00:14:43;;;;;;;6.03;3.87;;;2.10;99.90;;;;;;5024985;28;20504;-49
2021/01/25 00:17:08;;;;;;;6.77;4.00;;;2.10;99.90;;;;;;5021975;28;20648;-44
2021/01/25 00:19:34;;;;;;;4.97;3.60;;;2.10;99.90;;;;;;5009856;28;20396;-48
2021/01/25 00:21:59;;;;;;;6.20;4.00;;;2.10;99.90;;;;;;5025188;28;20521;-46
2021/01/25 00:24:25;;;;;;;6.00;4.13;;;2.10;99.90;;;;;;5016502;28;20230;-48
2021/01/25 00:26:50;;;;;;;6.67;4.83;;;2.10;99.90;;;;;;5025236;28;20699;-46
2021/01/25 00:29:16;;;;;;;9.33;5.20;;;2.10;99.90;;;;;;5023676;28;20183;-46
2021/01/25 00:31:41;;;;;;;8.90;5.83;;;2.20;99.90;;;;;;5015670;28;20787;-46
2021/01/25 00:34:07;;;;;;;11.17;7.27;;;2.20;99.90;;;;;;5010016;28;20545;-45
2021/01/25 00:36:32;;;;;;;9.40;6.77;;;2.20;99.90;;;;;;5018624;28;20176;-49
2021/01/25 00:38:58;;;;;;;9.57;6.70;;;2.20;99.90;;;;;;5023975;28;20183;-44
2021/01/25 00:41:23;;;;;;;9.13;6.77;;;2.20;99.90;;;;;;5019781;28;20218;-48
2021/01/25 00:43:48;;;;;;;8.80;6.40;;;2.20;99.90;;;;;;5023100;28;20187;-47
2021/01/25 00:46:14;;;;;;;9.30;6.70;;;2.20;99.90;;;;;;5022542;28;20234;-44
2021/01/25 00:48:39;;;;;;;9.73;7.60;;;2.20;99.90;;;;;;5006750;28;20574;-49
2021/01/25 00:51:05;;;;;;;11.47;6.83;;;2.20;99.90;;;;;;5022696;28;20289;-48
2021/01/25 00:53:31;;;;;;;8.47;6.63;;;2.20;99.90;;;;;;5019194;28;20867;-47
2021/01/25 00:55:56;;;;;;;9.80;6.37;;;2.10;99.90;;;;;;5024027;28;20226;-48
2021/01/25 00:58:22;;;;;;;8.40;6.17;;;2.10;99.90;;;;;;5020096;28;20188;-46
2021/01/25 01:00:47;;;;;;;8.60;5.93;;;2.10;99.90;;;;;;5020454;28;20217;-48
2021/01/25 01:03:13;;;;;;;8.53;5.87;;;2.10;99.90;;;;;;5022451;28;20530;-48
2021/01/25 01:05:38;;;;;;;8.40;6.87;;;2.10;99.90;;;;;;5006691;28;20235;-50
2021/01/25 01:08:04;;;;;;;9.70;5.60;;;2.10;99.90;;;;;;5023690;28;20576;-46
2021/01/25 01:10:30;;;;;;;7.33;6.13;;;2.10;99.90;;;;;;5011128;28;22113;-45
2021/01/25 01:12:55;;;;;;;6.90;6.13;;;2.20;99.90;;;;;;5023551;28;20205;-46
2021/01/25 01:15:20;;;;;;;9.80;6.53;;;2.20;99.90;;;;;;5020841;28;20290;-45
2021/01/25 01:17:46;;;;;;;9.27;6.77;;;2.20;99.90;;;;;;5022344;28;22071;-48
2021/01/25 01:20:12;;;;;;;8.53;7.00;;;2.20;99.90;;;;;;5009692;28;20191;-47
2021/01/25 01:22:38;;;;;;;9.50;6.90;;;2.20;99.90;;;;;;5018160;28;20758;-47
2021/01/25 01:25:09;;;;;;;9.20;5.97;;;2.20;99.90;;;;;;5081710;27;20529;-45
2021/01/25 01:27:35;;;;;;;7.57;6.57;;;2.20;99.90;;;;;;5079484;28;20752;-48
2021/01/25 01:30:01;;;;;;;8.97;6.07;;;2.20;99.90;;;;;;5077709;28;20213;-47
2021/01/25 01:32:26;;;;;;;7.57;5.97;;;2.20;99.90;;;;;;5073129;28;20565;-47
2021/01/25 01:34:52;;;;;;;8.97;5.97;;;2.20;99.90;;;;;;5076921;28;20288;-47
2021/01/25 01:37:17;;;;;;;6.47;5.67;;;2.20;99.90;;;;;;5068398;28;20201;-51
2021/01/25 01:39:43;;;;;;;7.10;5.27;;;2.20;99.90;;;;;;5073250;28;20183;-45
2021/01/25 01:42:16;;;;;;;6.30;5.63;;;2.10;99.90;;;;;;5076610;28;20185;-47
2021/01/25 01:44:43;;;;;;;5.67;5.10;;;2.10;99.90;;;;;;5077993;28;20289;-48
2021/01/25 01:47:10;;;;;;;5.50;5.00;;;2.10;99.90;;;;;;5079808;28;20265;-49
2021/01/25 01:49:36;;;;;;;6.23;5.30;;;2.10;99.90;;;;;;5063744;28;20430;-45
2021/01/25 01:52:02;;;;;;;5.90;5.30;;;2.10;99.90;;;;;;5068023;28;20185;-44
2021/01/25 01:54:27;;;;;;;5.87;5.33;;;2.10;99.90;;;;;;5075238;28;20194;-46
2021/01/25 01:56:53;;;;;;;6.73;5.13;;;2.10;99.90;;;;;;5063983;28;20194;-45
2021/01/25 01:59:18;;;;;;;5.53;5.03;;;2.10;99.90;;;;;;5079356;28;20200;-48
2021/01/25 02:01:44;;;;;;;7.57;4.73;;;2.10;99.90;;;;;;5073211;28;20282;-49
2021/01/25 02:04:10;;;;;;;7.20;5.60;;;2.10;99.90;;;;;;5069600;28;20680;-45
2021/01/25 02:06:36;;;;;;;5.27;4.77;;;2.10;99.90;;;;;;5064519;28;20416;-49
2021/01/25 02:09:04;;;;;;;4.90;4.50;;;2.10;99.90;;;;;;5082099;28;20177;-46
2021/01/25 02:11:33;;;;;;;5.37;4.50;;;2.10;99.90;;;;;;5065073;28;20709;-49
2021/01/25 02:14:00;;;;;;;8.70;5.13;;;2.10;99.90;;;;;;5080726;28;20195;-44
2021/01/25 02:16:25;;;;;;;5.70;5.07;;;2.10;99.90;;;;;;5066155;28;20193;-46
2021/01/25 02:18:51;;;;;;;7.07;5.20;;;2.00;99.90;;;;;;5078654;28;20694;-43
2021/01/25 02:21:17;;;;;;;5.80;5.20;;;2.00;99.90;;;;;;5066526;28;20197;-52
2021/01/25 02:23:55;;;;;;;5.53;4.87;;;2.00;99.90;;;;;;5071419;28;20213;-43
2021/01/25 02:26:53;;;;;;;5.60;4.93;;;2.00;99.90;;;;;;5076948;28;20193;-44
2021/01/25 02:29:19;;;;;;;5.77;5.20;;;2.00;99.90;;;;;;5085166;28;20223;-45
2021/01/25 02:31:45;;;;;;;5.47;4.97;;;2.00;99.90;;;;;;5075526;28;20253;-48
2021/01/25 02:34:12;;;;;;;5.37;4.83;;;2.00;99.90;;;;;;5074228;28;20323;-51
2021/01/25 02:36:38;;;;;;;6.33;5.33;;;2.00;99.90;;;;;;5049517;28;20198;-45
2021/01/25 02:39:05;;;;;;;6.20;5.53;;;2.00;99.90;;;;;;5049820;28;20202;-48
2021/01/25 02:41:32;;;;;;;5.90;5.40;;;2.00;99.90;;;;;;5061074;28;20243;-48
2021/01/25 02:43:58;;;;;;;5.87;5.30;;;2.00;99.90;;;;;;5054601;28;20675;-47
2021/01/25 02:46:25;;;;;;;7.17;5.30;;;2.00;99.90;;;;;;5057895;28;20250;-47
2021/01/25 02:48:50;;;;;;;7.20;5.47;;;2.00;99.90;;;;;;5060796;28;20190;-46
2021/01/25 02:51:17;;;;;;;6.03;5.30;;;2.00;99.90;;;;;;5063263;28;20227;-47
2021/01/25 02:53:43;;;;;;;6.93;5.97;;;2.00;99.90;;;;;;5053420;28;20209;-48
2021/01/25 02:56:11;;;;;;;5.77;5.27;;;2.10;99.90;;;;;;5060681;28;20186;-44
2021/01/25 02:58:36;;;;;;;6.47;5.77;;;2.00;99.90;;;;;;5063764;28;20186;-47
2021/01/25 03:01:02;;;;;;;6.20;5.60;;;2.10;99.90;;;;;;5064308;28;20534;-46
2021/01/25 03:03:30;;;;;;;6.60;5.87;;;2.10;99.90;;;;;;5055967;28;20995;-46
2021/01/25 03:05:57;;;;;;;7.47;6.37;;;2.10;99.90;;;;;;5060486;28;20206;-45
2021/01/25 03:08:24;;;;;;;6.77;6.00;;;2.00;99.90;;;;;;5049746;28;20752;-45
2021/01/25 03:10:50;;;;;;;6.63;6.00;;;2.00;99.90;;;;;;5054593;28;20190;-44
2021/01/25 03:13:15;;;;;;;5.80;5.20;;;2.00;99.90;;;;;;5059165;28;20201;-49
2021/01/25 03:15:43;;;;;;;7.30;5.77;;;2.00;99.90;;;;;;5056230;28;20486;-45
2021/01/25 03:18:08;;;;;;;5.50;5.00;;;2.00;99.90;;;;;;5060619;28;20266;-49
2021/01/25 03:20:34;;;;;;;7.37;5.33;;;2.00;99.90;;;;;;5053439;28;20353;-45
2021/01/25 03:22:59;;;;;;;5.83;5.23;;;2.00;99.90;;;;;;5058213;28;20229;-46
2021/01/25 03:25:25;;;;;;;5.83;5.17;;;2.00;99.90;;;;;;5048911;28;20210;-45
2021/01/25 03:27:50;;;;;;;6.53;4.70;;;2.00;99.90;;;;;;5062266;28;20177;-46
2021/01/25 03:30:16;;;;;;;6.37;5.03;;;2.00;99.90;;;;;;5067573;28;20173;-46
2021/01/25 03:32:43;;;;;;;5.70;5.10;;;2.00;99.90;;;;;;5059456;28;20403;-46
2021/01/25 03:35:09;;;;;;;6.43;5.00;;;1.90;99.90;;;;;;5064114;28;20259;-48
2021/01/25 03:37:36;;;;;;;6.17;4.73;;;1.90;99.90;;;;;;5044735;28;20425;-48
2021/01/25 03:40:02;;;;;;;8.40;5.50;;;2.00;99.90;;;;;;5054208;28;20432;-50
2021/01/25 03:42:27;;;;;;;5.30;4.63;;;2.00;99.90;;;;;;5070213;28;20411;-47
2021/01/25 03:44:53;;;;;;;5.70;5.10;;;2.00;99.90;;;;;;5052258;28;20228;-47
2021/01/25 03:47:18;;;;;;;6.00;5.30;;;2.00;99.90;;;;;;5060685;28;20178;-47
2021/01/25 03:49:44;;;;;;;5.53;5.03;;;2.00;99.90;;;;;;5057616;28;20667;-47
2021/01/25 03:52:09;;;;;;;7.67;5.70;;;2.00;99.90;;;;;;5060390;28;20264;-45
2021/01/25 03:54:35;;;;;;;6.53;5.37;;;2.00;99.90;;;;;;5049215;28;20218;-46
2021/01/25 03:57:02;;;;;;;6.47;5.63;;;2.00;99.90;;;;;;5059895;28;20326;-49
2021/01/25 03:59:29;;;;;;;6.80;5.17;;;1.90;99.90;;;;;;5064137;28;20391;-45
2021/01/25 04:01:55;;;;;;;5.67;5.07;;;1.90;99.90;;;;;;5063940;28;20189;-45
2021/01/25 04:04:20;;;;;;;6.20;5.60;;;1.80;99.90;;;;;;5057613;28;20212;-48
2021/01/25 04:06:46;;;;;;;5.87;5.33;;;1.80;99.90;;;;;;5054665;28;20402;-45
2021/01/25 04:09:11;;;;;;;6.43;5.77;;;1.80;99.90;;;;;;5059104;28;20181;-46
2021/01/25 04:11:37;;;;;;;7.37;5.70;;;1.80;99.90;;;;;;5045556;28;20388;-47
2021/01/25 04:14:04;;;;;;;6.97;5.27;;;1.70;99.90;;;;;;5058533;28;20194;-48
2021/01/25 04:16:29;;;;;;;8.33;6.17;;;1.70;99.90;;;;;;5056232;28;20385;-46
2021/01/25 04:18:55;;;;;;;8.70;6.53;;;1.70;99.90;;;;;;5063438;28;20268;-47
2021/01/25 04:21:20;;;;;;;6.73;5.87;;;1.70;99.90;;;;;;5060474;28;20185;-46
2021/01/25 04:23:46;;;;;;;7.23;6.43;;;1.70;99.90;;;;;;5062046;28;20800;-46
2021/01/25 04:26:11;;;;;;;10.57;7.50;;;1.70;99.90;;;;;;5056961;28;20209;-45
2021/01/25 04:28:37;;;;;;;8.97;7.50;;;1.80;99.90;;;;;;5059825;28;20401;-48
2021/01/25 04:31:02;;;;;;;8.23;6.80;;;1.80;99.90;;;;;;5069307;28;20204;-46
2021/01/25 04:33:28;;;;;;;7.70;6.90;;;1.80;99.90;;;;;;5059078;28;20639;-47
2021/01/25 04:35:53;;;;;;;10.30;7.40;;;1.80;99.90;;;;;;5046891;28;20212;-45
2021/01/25 04:38:19;;;;;;;9.80;7.07;;;1.80;99.90;;;;;;5062420;28;20199;-50
2021/01/25 04:40:44;;;;;;;9.70;7.53;;;1.80;99.90;;;;;;5053355;28;20351;-43
2021/01/25 04:43:10;;;;;;;9.10;6.43;;;1.90;99.90;;;;;;5055832;28;20210;-44
2021/01/25 04:45:36;;;;;;;8.20;6.37;;;1.80;99.90;;;;;;5055782;28;20203;-47
2021/01/25 04:48:01;;;;;;;8.53;6.27;;;1.80;99.90;;;;;;5062252;28;20188;-49
2021/01/25 04:50:28;;;;;;;7.93;6.53;;;1.80;99.90;;;;;;5050831;28;20178;-45
2021/01/25 04:52:54;;;;;;;7.97;5.90;;;1.80;99.90;;;;;;5060928;28;20200;-46
2021/01/25 04:55:20;;;;;;;10.57;6.27;;;1.80;99.90;;;;;;5052934;28;20220;-45
2021/01/25 04:57:47;;;;;;;7.63;5.37;;;1.80;99.90;;;;;;5057387;28;20193;-47
2021/01/25 05:00:16;;;;;;;8.27;6.20;;;1.80;99.90;;;;;;5061209;28;20183;-50
2021/01/25 05:02:41;;;;;;;8.07;6.27;;;1.80;99.90;;;;;;5056068;28;20437;-48
2021/01/25 05:05:09;;;;;;;8.17;5.73;;;1.80;99.90;;;;;;5052138;28;20701;-47
2021/01/25 05:07:35;;;;;;;8.60;6.50;;;1.80;99.90;;;;;;5053244;28;20375;-45
2021/01/25 05:10:01;;;;;;;8.70;6.40;;;1.80;99.90;;;;;;5057703;28;20281;-50
2021/01/25 05:12:40;;;;;;;6.70;6.00;;;1.80;99.90;;;;;;5042470;28;20531;-45
2021/01/25 05:15:06;;;;;;;6.70;5.80;;;1.80;99.90;;;;;;5062231;28;20213;-45
2021/01/25 05:17:32;;;;;;;9.57;6.57;;;1.80;99.90;;;;;;5057792;28;20182;-47
2021/01/25 05:19:57;;;;;;;10.37;6.70;;;1.80;99.90;;;;;;5054371;28;20193;-46
2021/01/25 05:22:25;;;;;;;7.83;6.23;;;1.80;99.90;;;;;;5055942;28;20276;-45
2021/01/25 05:24:52;;;;;;;11.53;7.27;;;1.80;99.90;;;;;;5060767;28;20212;-44
2021/01/25 05:27:31;;;;;;;10.37;7.00;;;1.80;99.90;;;;;;5050156;28;20192;-45
2021/01/25 05:30:10;;;;;;;9.67;7.00;;;1.80;99.90;;;;;;5060698;28;20187;-53
2021/01/25 05:32:50;;;;;;;8.70;6.13;;;1.80;99.90;;;;;;5056365;28;20296;-45
2021/01/25 05:35:19;;;;;;;12.67;8.17;;;1.80;99.90;;;;;;5060567;28;20205;-47
2021/01/25 05:38:02;;;;;;;11.70;8.43;;;1.80;99.90;;;;;;5048396;28;20787;-47
2021/01/25 05:40:29;;;;;;;10.67;7.77;;;1.80;99.90;;;;;;5057279;28;20783;-46
2021/01/25 05:42:55;;;;;;;13.03;7.67;;;1.80;99.90;;;;;;5052041;28;20194;-44
2021/01/25 05:45:21;;;;;;;15.47;8.83;;;1.80;99.90;;;;;;5050716;28;20575;-46
2021/01/25 05:47:51;;;;;;;11.27;7.80;;;1.80;99.90;;;;;;5058119;28;20620;-45
2021/01/25 05:50:40;;;;;;;15.07;9.90;;;1.80;99.90;;;;;;5051577;28;20186;-45
2021/01/25 05:53:07;;;;;;;13.73;9.40;;;1.80;99.90;;;;;;5047626;28;20536;-46
2021/01/25 05:55:34;;;;;;;14.53;9.27;;;1.80;99.90;;;;;;5051259;28;20323;-46
2021/01/25 05:58:00;;;;;;;13.33;9.27;;;1.80;99.90;;;;;;5049391;28;20185;-47
2021/01/25 06:00:27;;;;;;;14.40;9.33;;;1.80;99.90;;;;;;5042683;28;20191;-48
2021/01/25 06:02:53;;;;;;;12.80;8.87;;;1.80;99.90;;;;;;5056365;28;20186;-47
2021/01/25 06:05:25;;;;;;;14.70;9.00;;;1.80;99.90;;;;;;5055613;28;20296;-44
2021/01/25 06:07:51;;;;;;;12.90;8.47;;;1.70;99.90;;;;;;5061233;28;20191;-44
2021/01/25 06:10:27;;;;;;;11.77;8.07;;;1.70;99.90;;;;;;5053632;28;20562;-53
2021/01/25 06:13:05;;;;;;;9.63;7.83;;;1.70;99.90;;;;;;5060803;28;20193;-49
2021/01/25 06:15:32;;;;;;;10.10;7.33;;;1.70;99.90;;;;;;5055934;28;20231;-48
2021/01/25 06:17:59;;;;;;;10.33;7.50;;;1.70;99.90;;;;;;5067562;28;20177;-45
2021/01/25 06:20:27;;;;;;;15.17;7.90;;;1.70;99.90;;;;;;5051659;28;20224;-50
2021/01/25 06:22:53;;;;;;;10.80;7.70;;;1.70;99.90;;;;;;5066905;28;20262;-49
2021/01/25 06:25:19;;;;;;;10.73;7.73;;;1.70;99.90;;;;;;5051012;28;20296;-45
2021/01/25 06:27:45;;;;;;;12.17;8.97;;;1.70;99.90;;;;;;5060773;28;20595;-44
2021/01/25 06:30:12;;;;;;;13.63;8.20;;;1.70;99.90;;;;;;5055550;28;20193;-46
2021/01/25 06:32:42;;;;;;;16.87;10.13;;;1.70;99.90;;;;;;5058147;28;20849;-47
2021/01/25 06:35:11;;;;;;;13.37;8.03;;;1.70;99.90;;;;;;5065162;28;20198;-46
2021/01/25 06:37:37;;;;;;;12.67;8.90;;;1.70;99.90;;;;;;5054270;28;20272;-48
2021/01/25 06:40:11;;;;;;;13.00;8.87;;;1.70;99.90;;;;;;5056696;28;20278;-45
2021/01/25 06:42:42;;;;;;;13.97;8.43;;;1.70;99.90;;;;;;5055823;28;20391;-50
2021/01/25 06:45:08;;;;;;;13.20;8.13;;;1.70;99.90;;;;;;5065897;28;20220;-44
2021/01/25 06:47:35;;;;;;;13.03;8.23;;;1.70;99.90;;;;;;5051267;28;20290;-48
2021/01/25 06:50:03;;;;;;;14.60;8.37;;;1.70;99.90;;;;;;5063760;28;20186;-50
2021/01/25 06:52:36;;;;;;;11.57;7.67;;;1.70;99.90;;;;;;5058125;28;20265;-46
2021/01/25 06:55:04;;;;;;;12.47;8.00;;;1.70;99.90;;;;;;5063862;28;20210;-51
2021/01/25 06:57:33;;;;;;;14.00;8.37;;;1.80;99.90;;;;;;5050478;28;20668;-51
2021/01/25 07:00:14;;;;;;;14.37;8.80;;;1.80;99.90;;;;;;5065501;28;20193;-44
2021/01/25 07:02:53;;;;;;;15.80;8.93;;;1.70;99.90;;;;;;5055942;28;20374;-45
2021/01/25 07:05:25;;;;;;;10.87;8.53;;;1.70;99.90;;;;;;5068112;28;20205;-52
2021/01/25 07:07:51;;;;;;;13.97;8.30;;;1.70;99.90;;;;;;5058017;28;20178;-45
2021/01/25 07:10:20;;;;;;;13.40;9.20;;;1.70;99.90;;;;;;5032679;28;20345;-45
2021/01/25 07:12:45;;;;;;;15.23;9.07;;;1.70;99.90;;;;;;5055408;28;20187;-54
2021/01/25 07:15:12;;;;;;;13.30;9.13;;;1.70;99.90;;;;;;5056525;28;20206;-49
2021/01/25 07:17:37;;;;;;;11.67;8.80;;;1.70;99.90;;;;;;5048287;28;20562;-48
2021/01/25 07:20:04;;;;;;;13.57;8.63;;;1.70;99.90;;;;;;5062763;28;20196;-45
2021/01/25 07:22:34;;;;;;;16.47;8.80;;;1.60;99.90;;;;;;5058024;28;20198;-51
2021/01/25 07:25:00;;;;;;;12.83;8.87;;;1.60;99.90;;;;;;5066886;28;20224;-47
2021/01/25 07:27:34;;;;;;;14.90;9.63;;;1.60;99.90;;;;;;5058918;28;20891;-51
2021/01/25 07:29:59;;;;;;;13.50;9.23;;;1.70;99.90;;;;;;5063466;28;20181;-47
2021/01/25 07:32:25;;;;;;;13.90;9.87;;;1.70;99.90;;;;;;5056732;28;20216;-52
2021/01/25 07:34:51;;;;;;;16.03;9.30;;;1.70;99.90;;;;;;5061778;28;20304;-48
2021/01/25 07:37:16;;;;;;;15.17;10.63;;;1.70;99.90;;;;;;5058837;28;20197;-45
2021/01/25 07:39:44;;;;;;;15.93;10.07;;;1.70;99.90;;;;;;5055696;28;20271;-49
2021/01/25 07:42:10;;;;;;;12.37;9.53;;;1.70;99.90;;;;;;5067431;28;20663;-47
2021/01/25 07:44:36;;;;;;;13.47;9.33;;;1.60;99.90;;;;;;5069060;28;20213;-45
2021/01/25 07:47:04;;;;;;;12.63;8.60;;;1.60;99.90;;;;;;5038724;28;20189;-47
2021/01/25 07:49:30;;;;;;;14.57;8.73;;;1.60;99.90;;;;;;5060665;28;20170;-45
2021/01/25 07:51:56;;;;;;;11.77;8.53;;;1.50;99.90;;;;;;5062836;28;20183;-50
2021/01/25 07:54:23;;;;;;;14.77;8.53;;;1.50;99.90;;;;;;5057476;28;21049;-46
2021/01/25 07:56:49;;;;;;;14.77;8.90;;;1.40;99.90;;;;;;5059021;28;20225;-45
2021/01/25 07:59:16;;;;;;;23.47;8.47;;;1.40;99.90;;;;;;5055130;28;20285;-49
2021/01/25 08:01:59;;;;;;;14.10;9.17;;;1.40;99.90;;;;;;5058563;28;20204;-46
2021/01/25 08:04:29;;;;;;;13.63;9.57;;;1.30;99.90;;;;;;5050934;28;20209;-44
2021/01/25 08:06:58;;;;;;;19.13;9.93;;;1.30;99.90;;;;;;5064210;28;20201;-44
2021/01/25 08:09:25;;;;;;;17.90;9.83;;;1.40;99.90;;;;;;5050548;28;20196;-44
2021/01/25 08:11:51;;;;;;;16.97;9.50;;;1.40;99.90;;;;;;5063317;28;20730;-46
2021/01/25 08:14:22;;;;;;;17.17;10.03;;;1.40;99.90;;;;;;5051423;28;20265;-51
2021/01/25 08:16:57;;;;;;;16.93;10.10;;;1.40;99.90;;;;;;5060372;28;20185;-47
2021/01/25 08:19:31;;;;;;;17.60;9.90;;;1.40;99.90;;;;;;5054571;28;20198;-51
2021/01/25 08:22:01;;;;;;;20.20;9.57;;;1.40;99.90;;;;;;5059935;28;20257;-47
2021/01/25 08:24:27;;;;;;;22.00;10.50;;;1.40;99.90;;;;;;5050150;28;20201;-47
2021/01/25 08:26:55;;;;;;;20.87;11.77;;;1.40;99.90;;;;;;5060517;28;20193;-48
2021/01/25 08:29:26;;;;;;;17.53;11.77;;;1.40;99.90;;;;;;5048680;28;20250;-46
2021/01/25 08:31:52;;;;;;;17.43;10.80;;;1.40;99.90;;;;;;5053889;28;20200;-46
2021/01/25 08:34:23;;;;;;;23.83;10.73;;;1.40;99.90;;;;;;5045872;28;20468;-48
2021/01/25 08:37:10;;;;;;;24.90;9.83;;;1.40;99.90;;;;;;5066971;28;20190;-47
2021/01/25 08:39:39;;;;;;;19.47;8.90;;;1.40;99.90;;;;;;5054295;28;20733;-49
2021/01/25 08:42:13;;;;;;;24.03;9.60;;;1.40;99.90;;;;;;5062167;28;20185;-51
2021/01/25 08:44:47;;;;;;;16.37;7.37;;;1.30;99.90;;;;;;5054482;28;20210;-48
2021/01/25 08:47:16;;;;;;;12.07;7.20;;;1.30;99.90;;;;;;5055246;28;20216;-47
2021/01/25 08:49:43;;;;;;;15.37;8.30;;;1.20;99.90;;;;;;5051077;28;20328;-46
2021/01/25 08:52:21;;;;;;;15.80;8.43;;;1.20;99.90;;;;;;5061328;28;20178;-48
2021/01/25 08:54:47;;;;;;;17.03;8.80;;;1.30;99.90;;;;;;5052311;28;20216;-49
2021/01/25 08:57:32;;;;;;;34.77;11.40;;;1.30;99.90;;;;;;5059671;28;20565;-48
2021/01/25 09:00:13;;;;;;;68.23;15.90;;;1.30;99.90;;;;;;5053691;28;20233;-45
2021/01/25 09:02:39;;;;;;;35.23;13.07;;;1.30;99.90;;;;;;5062728;28;20662;-44
2021/01/25 09:05:05;;;;;;;23.40;9.90;;;1.20;99.90;;;;;;5044848;28;20223;-52
2021/01/25 09:07:30;;;;;;;17.57;9.17;;;1.30;99.90;;;;;;5060885;28;20932;-43
2021/01/25 09:09:56;;;;;;;15.00;9.17;;;1.20;99.90;;;;;;5062917;28;20255;-47
2021/01/25 09:12:22;;;;;;;11.73;8.50;;;1.20;99.90;;;;;;5054414;28;20182;-48
2021/01/25 09:14:48;;;;;;;18.97;9.23;;;1.30;99.90;;;;;;5063236;28;20254;-48
2021/01/25 09:17:14;;;;;;;20.57;10.23;;;1.30;99.90;;;;;;5054392;28;20204;-46
2021/01/25 09:19:40;;;;;;;19.37;8.63;;;1.30;99.90;;;;;;5055505;28;20220;-47
2021/01/25 09:22:08;;;;;;;18.20;8.90;;;1.30;99.90;;;;;;5068018;28;20712;-46
2021/01/25 09:24:34;;;;;;;28.87;10.47;;;1.20;99.90;;;;;;5066736;28;20217;-46
2021/01/25 09:26:59;;;;;;;20.20;8.93;;;1.20;99.90;;;;;;5054994;28;20194;-48
2021/01/25 09:29:25;;;;;;;17.90;9.23;;;1.30;99.90;;;;;;5062206;28;20190;-49
2021/01/25 09:31:50;;;;;;;12.07;8.27;;;1.30;99.90;;;;;;5056941;28;20193;-49
2021/01/25 09:34:16;;;;;;;14.57;7.87;;;1.30;99.90;;;;;;5058648;28;20214;-47
2021/01/25 09:36:42;;;;;;;17.90;7.63;;;1.30;99.90;;;;;;5051226;28;20201;-49
2021/01/25 09:39:08;;;;;;;9.93;7.63;;;1.30;99.90;;;;;;5060775;28;20213;-47
2021/01/25 09:41:35;;;;;;;11.73;7.20;;;1.30;99.90;;;;;;5055879;28;20284;-46
2021/01/25 09:44:01;;;;;;;11.00;6.23;;;1.30;99.90;;;;;;5062250;28;20198;-49
2021/01/25 09:46:26;;;;;;;11.37;5.97;;;1.30;99.90;;;;;;5055987;28;22640;-48
2021/01/25 09:48:52;;;;;;;14.17;8.33;;;1.30;99.90;;;;;;5060135;28;20170;-49
2021/01/25 09:51:17;;;;;;;15.13;8.27;;;1.30;99.90;;;;;;5046140;28;20281;-50
2021/01/25 09:53:43;;;;;;;16.03;8.33;;;1.40;99.90;;;;;;5063121;28;20201;-52
2021/01/25 09:56:08;;;;;;;18.47;8.30;;;1.40;99.90;;;;;;5069839;28;20185;-49
2021/01/25 09:58:36;;;;;;;11.60;7.23;;;1.40;99.90;;;;;;5058506;28;20190;-49
2021/01/25 10:01:02;;;;;;;11.47;7.57;;;1.40;99.90;;;;;;5059314;28;20190;-50
2021/01/25 10:03:28;;;;;;;15.30;7.93;;;1.40;99.90;;;;;;5048030;28;20916;-52
2021/01/25 10:05:53;;;;;;;21.53;8.40;;;1.40;99.90;;;;;;5056061;28;20308;-49
2021/01/25 10:08:18;;;;;;;13.30;8.03;;;1.40;99.90;;;;;;5054925;28;20551;-55
2021/01/25 10:10:44;;;;;;;12.90;7.87;;;1.30;99.90;;;;;;5055576;28;20669;-52
2021/01/25 10:13:10;;;;;;;14.80;9.23;;;1.30;99.90;;;;;;5056680;28;20187;-55
2021/01/25 10:15:35;;;;;;;12.70;8.10;;;1.40;99.90;;;;;;5064828;28;20187;-54
2021/01/25 10:18:02;;;;;;;18.07;8.77;;;1.40;99.90;;;;;;5057306;28;20688;-50
2021/01/25 10:20:29;;;;;;;15.33;8.57;;;1.40;99.90;;;;;;5065225;28;20178;-52
2021/01/25 10:22:54;;;;;;;23.27;8.77;;;1.40;99.90;;;;;;5051971;28;20201;-48
2021/01/25 10:25:20;;;;;;;17.50;9.37;;;1.40;99.90;;;;;;5067498;28;20206;-54
2021/01/25 10:27:46;;;;;;;14.90;9.50;;;1.40;99.90;;;;;;5055742;28;20544;-48
2021/01/25 10:30:14;;;;;;;15.77;9.50;;;1.40;99.90;;;;;;5057473;28;20244;-52
2021/01/25 10:32:40;;;;;;;17.73;10.10;;;1.50;99.90;;;;;;5066104;28;20185;-47
2021/01/25 10:35:07;;;;;;;13.03;8.53;;;1.50;99.90;;;;;;5053584;28;21029;-48
2021/01/25 10:37:33;;;;;;;15.03;9.27;;;1.50;99.90;;;;;;5067063;28;20285;-46
2021/01/25 10:39:58;;;;;;;28.87;12.27;;;1.50;99.90;;;;;;5049768;28;20275;-50
2021/01/25 10:42:24;;;;;;;17.13;9.90;;;1.60;99.90;;;;;;5059751;28;20566;-46
2021/01/25 10:44:49;;;;;;;14.97;8.93;;;1.50;99.90;;;;;;5053430;28;20210;-47
2021/01/25 10:47:18;;;;;;;16.07;8.80;;;1.60;99.90;;;;;;5058702;28;20185;-48
2021/01/25 10:49:47;;;;;;;14.83;9.23;;;1.60;99.90;;;;;;5063952;28;20261;-49
2021/01/25 10:52:13;;;;;;;15.63;9.67;;;1.70;99.90;;;;;;5055424;28;20178;-47
2021/01/25 10:54:39;;;;;;;15.40;9.77;;;1.80;99.90;;;;;;5057638;28;20548;-53
2021/01/25 10:57:05;;;;;;;21.87;10.67;;;1.90;99.90;;;;;;5054612;28;20994;-48
2021/01/25 10:59:31;;;;;;;13.47;9.10;;;1.90;99.90;;;;;;5060154;28;20189;-48
2021/01/25 11:01:56;;;;;;;13.63;8.47;;;2.00;99.90;;;;;;5061394;28;20186;-51
2021/01/25 11:04:22;;;;;;;15.60;9.60;;;2.00;99.90;;;;;;5067777;28;20566;-52
2021/01/25 11:06:48;;;;;;;14.80;8.23;;;1.90;99.90;;;;;;5057508;28;20196;-46
2021/01/25 11:09:15;;;;;;;14.23;8.60;;;1.90;99.90;;;;;;5046000;28;20723;-50
2021/01/25 11:11:40;;;;;;;14.53;8.40;;;1.90;99.90;;;;;;5059232;28;20268;-47
2021/01/25 11:14:05;;;;;;;14.77;9.53;;;1.90;99.90;;;;;;5055980;28;20304;-47
2021/01/25 11:16:32;;;;;;;15.13;9.67;;;2.00;99.90;;;;;;5047924;28;20201;-47
2021/01/25 11:18:58;;;;;;;16.63;9.33;;;2.10;99.90;;;;;;5066816;28;20178;-50
2021/01/25 11:21:23;;;;;;;9.97;7.57;;;2.00;99.90;;;;;;5048256;28;20669;-45
2021/01/25 11:23:50;;;;;;;11.00;6.93;;;2.00;99.90;;;;;;5062078;28;20202;-48
2021/01/25 11:26:17;;;;;;;12.33;7.93;;;2.00;99.90;;;;;;5053768;28;20685;-45
2021/01/25 11:28:42;;;;;;;12.17;7.50;;;2.00;99.90;;;;;;5058955;28;20268;-51
2021/01/25 11:31:08;;;;;;;16.40;8.33;;;2.10;99.90;;;;;;5060776;28;20259;-46
2021/01/25 11:33:34;;;;;;;14.37;8.20;;;2.20;99.90;;;;;;5059961;28;20915;-45
2021/01/25 11:36:00;;;;;;;11.50;7.87;;;2.20;99.90;;;;;;5064658;28;20294;-49
2021/01/25 11:38:26;;;;;;;11.07;7.03;;;2.10;99.90;;;;;;5050695;28;20225;-51
2021/01/25 11:40:51;;;;;;;7.80;5.73;;;2.10;99.90;;;;;;5046663;28;20205;-45
2021/01/25 11:43:17;;;;;;;11.47;6.93;;;2.10;99.90;;;;;;5059498;28;20332;-50
2021/01/25 11:45:43;;;;;;;12.23;7.17;;;2.20;99.90;;;;;;5049444;28;20704;-45
2021/01/25 11:48:09;;;;;;;11.43;7.33;;;2.20;99.90;;;;;;5051475;28;20775;-50
2021/01/25 11:50:34;;;;;;;10.73;7.23;;;2.20;99.90;;;;;;5062595;28;20264;-45
2021/01/25 11:52:59;;;;;;;11.63;7.50;;;2.20;99.90;;;;;;5059817;28;20191;-44
2021/01/25 11:55:25;;;;;;;8.93;6.03;;;2.10;99.90;;;;;;5043785;28;20217;-48
2021/01/25 11:57:50;;;;;;;9.60;6.03;;;2.20;99.90;;;;;;5070020;28;20538;-45
2021/01/25 12:00:16;;;;;;;6.33;5.70;;;2.20;99.90;;;;;;5054674;28;20269;-45
2021/01/25 12:02:42;;;;;;;8.43;6.47;;;2.20;99.90;;;;;;5049988;28;20209;-45
2021/01/25 12:05:09;;;;;;;9.13;4.90;;;2.10;99.90;;;;;;5063526;28;20216;-45
2021/01/25 12:07:34;;;;;;;6.80;5.60;;;2.10;99.90;;;;;;5058186;28;20374;-45
2021/01/25 12:09:59;;;;;;;6.37;5.70;;;2.10;99.90;;;;;;5046806;28;20194;-46
2021/01/25 12:12:25;;;;;;;6.80;5.37;;;2.20;99.90;;;;;;5048438;28;20201;-48
2021/01/25 12:14:50;;;;;;;9.13;5.13;;;2.20;99.90;;;;;;5063395;28;20615;-48
2021/01/25 12:17:16;;;;;;;6.37;4.73;;;2.10;99.90;;;;;;5060247;28;20331;-50
2021/01/25 12:19:41;;;;;;;6.50;5.43;;;2.10;99.90;;;;;;5061887;28;20186;-45
2021/01/25 12:22:07;;;;;;;6.50;5.83;;;2.10;99.90;;;;;;5063673;28;20182;-48
2021/01/25 12:24:32;;;;;;;10.43;5.73;;;2.00;99.90;;;;;;5048170;28;20229;-48
2021/01/25 12:26:58;;;;;;;6.13;5.53;;;2.10;99.90;;;;;;5063439;28;20674;-46
2021/01/25 12:29:23;;;;;;;6.23;5.47;;;2.10;99.90;;;;;;5048607;28;20563;-48
2021/01/25 12:31:49;;;;;;;8.90;5.77;;;2.20;99.90;;;;;;5063265;28;20213;-47
2021/01/25 12:34:16;;;;;;;9.33;5.93;;;2.20;99.90;;;;;;5055141;28;20213;-49
2021/01/25 12:36:41;;;;;;;7.43;6.03;;;2.20;99.90;;;;;;5061774;28;20190;-49
2021/01/25 12:39:07;;;;;;;8.77;6.40;;;2.20;99.90;;;;;;5062831;28;20193;-54
2021/01/25 12:41:32;;;;;;;7.47;5.27;;;2.20;99.90;;;;;;5039441;28;20993;-48
2021/01/25 12:43:58;;;;;;;7.20;5.87;;;2.20;99.90;;;;;;5048759;28;20331;-44
2021/01/25 12:46:23;;;;;;;7.57;5.40;;;2.20;99.90;;;;;;5064864;28;20543;-48
2021/01/25 12:48:49;;;;;;;11.80;5.93;;;2.20;99.90;;;;;;5053192;28;20231;-49